Time;durP1;ratioP1;P1;durP2;ratioP2;P2;SDS_P1;SDS_P2;PMS_P1;PMS_P2;Temp;Humidity;BMP_temperature;BMP_pressure;BME280_temperature;BME280_humidity;BME280_pressure;Samples;Min_cycle;Max_cycle;Signal;HPM_P1;HPM_P2
2022/03/18 00:02:03;;;;;;;35.00;26.57;;;14.60;61.10;;;;;;5028152;28;20280;-44
2022/03/18 00:04:29;;;;;;;34.07;26.47;;;14.50;61.00;;;;;;5027832;28;20447;-46
2022/03/18 00:06:55;;;;;;;29.63;24.67;;;14.50;61.10;;;;;;5029412;28;20494;-45
2022/03/18 00:09:21;;;;;;;29.50;24.33;;;14.40;61.00;;;;;;5025537;28;20193;-45
2022/03/18 00:11:47;;;;;;;31.53;24.27;;;14.40;61.20;;;;;;5026816;28;20190;-45
2022/03/18 00:14:13;;;;;;;28.90;23.90;;;14.40;61.60;;;;;;5024311;28;20201;-49
2022/03/18 00:16:39;;;;;;;28.87;24.47;;;14.30;61.70;;;;;;5023968;28;20446;-44
2022/03/18 00:19:04;;;;;;;26.90;22.17;;;14.30;61.80;;;;;;5023163;28;20436;-44
2022/03/18 00:21:30;;;;;;;27.30;21.90;;;14.40;61.60;;;;;;5028459;28;20193;-43
2022/03/18 00:23:56;;;;;;;27.80;22.60;;;14.30;61.50;;;;;;5024006;28;20189;-47
2022/03/18 00:26:22;;;;;;;25.77;21.00;;;14.30;61.50;;;;;;5027287;28;20284;-46
2022/03/18 00:28:47;;;;;;;27.10;21.20;;;14.30;61.60;;;;;;5027476;28;20530;-43
2022/03/18 00:31:13;;;;;;;22.53;20.10;;;14.30;61.70;;;;;;5027131;28;20189;-45
2022/03/18 00:33:38;;;;;;;25.00;20.60;;;14.40;61.80;;;;;;5029254;28;20193;-49
2022/03/18 00:36:04;;;;;;;24.97;19.80;;;14.40;61.70;;;;;;5027048;28;20193;-47
2022/03/18 00:38:31;;;;;;;22.83;18.80;;;14.30;61.30;;;;;;5022294;28;20226;-46
2022/03/18 00:40:57;;;;;;;21.90;18.83;;;14.20;61.70;;;;;;5026669;28;20197;-43
2022/03/18 00:43:23;;;;;;;20.67;17.60;;;14.20;61.80;;;;;;5024198;28;20448;-46
2022/03/18 00:45:49;;;;;;;22.63;18.60;;;14.20;61.90;;;;;;5034478;28;20368;-43
2022/03/18 00:53:43;;;;;;;21.40;18.60;;;14.30;61.60;;;;;;5022361;28;20634;-44
2022/03/18 00:56:08;;;;;;;20.37;17.37;;;14.30;61.40;;;;;;5023315;28;20837;-44
2022/03/18 00:58:34;;;;;;;19.10;16.90;;;14.30;61.30;;;;;;5021653;28;20736;-46
2022/03/18 01:01:00;;;;;;;20.93;17.90;;;14.40;61.30;;;;;;5023669;28;20298;-47
2022/03/18 01:03:25;;;;;;;21.53;19.23;;;14.40;61.40;;;;;;5030091;28;20280;-45
2022/03/18 01:05:51;;;;;;;21.00;17.77;;;14.40;61.40;;;;;;5022520;28;20652;-44
2022/03/18 01:08:16;;;;;;;20.57;17.30;;;14.40;61.30;;;;;;5026559;28;20236;-48
2022/03/18 01:10:42;;;;;;;20.67;17.93;;;14.40;61.30;;;;;;5022445;28;20691;-44
2022/03/18 01:13:08;;;;;;;21.40;18.73;;;14.50;61.20;;;;;;5026045;28;20259;-44
2022/03/18 01:15:33;;;;;;;20.17;16.93;;;14.40;61.00;;;;;;5030123;28;20197;-43
2022/03/18 01:17:59;;;;;;;22.17;17.70;;;14.40;60.90;;;;;;5023448;28;20263;-44
2022/03/18 01:20:25;;;;;;;19.57;17.47;;;14.40;60.90;;;;;;5023142;28;20189;-45
2022/03/18 01:22:51;;;;;;;25.83;19.30;;;14.10;60.60;;;;;;5025152;28;20211;-45
2022/03/18 01:25:17;;;;;;;21.23;18.60;;;14.20;61.00;;;;;;5031181;28;21138;-47
2022/03/18 01:27:43;;;;;;;24.23;19.20;;;14.20;60.90;;;;;;5035479;28;20483;-46
2022/03/18 01:30:09;;;;;;;20.83;16.80;;;14.30;60.90;;;;;;5022968;28;20526;-46
2022/03/18 01:32:35;;;;;;;21.20;16.53;;;14.30;60.90;;;;;;5025705;28;20205;-48
2022/03/18 01:35:00;;;;;;;21.20;17.63;;;14.30;60.90;;;;;;5026134;28;20490;-43
2022/03/18 01:37:26;;;;;;;20.70;17.97;;;14.30;60.90;;;;;;5022011;28;20742;-44
2022/03/18 01:39:52;;;;;;;20.10;17.23;;;14.30;60.70;;;;;;5024791;28;20196;-47
2022/03/18 01:42:18;;;;;;;22.63;17.07;;;14.40;60.70;;;;;;5028601;28;20193;-48
2022/03/18 01:44:45;;;;;;;21.07;17.80;;;14.40;60.50;;;;;;5024637;28;20208;-43
2022/03/18 01:47:11;;;;;;;20.37;17.17;;;14.40;60.40;;;;;;5040565;28;20251;-45
2022/03/18 01:49:38;;;;;;;19.63;16.60;;;14.40;61.10;;;;;;5024095;28;20465;-46
2022/03/18 01:52:05;;;;;;;19.13;16.00;;;14.40;60.10;;;;;;5025961;28;20258;-45
2022/03/18 01:54:49;;;;;;;19.43;17.30;;;14.40;59.90;;;;;;5030081;28;20458;-44
2022/03/18 01:57:18;;;;;;;22.60;17.93;;;14.30;59.80;;;;;;5022667;28;20475;-45
2022/03/18 01:59:43;;;;;;;19.10;16.97;;;14.30;59.90;;;;;;5025775;28;20501;-43
2022/03/18 02:02:09;;;;;;;18.73;16.40;;;14.20;59.90;;;;;;5023203;28;20956;-43
2022/03/18 02:04:35;;;;;;;22.33;17.17;;;14.30;59.80;;;;;;5029198;28;20186;-45
2022/03/18 02:07:03;;;;;;;21.03;16.17;;;14.20;59.70;;;;;;5024121;28;20707;-43
2022/03/18 02:09:30;;;;;;;18.53;15.70;;;14.20;59.50;;;;;;5035751;28;20447;-44
2022/03/18 02:11:56;;;;;;;18.30;16.30;;;14.20;59.50;;;;;;5022981;28;20840;-44
2022/03/18 02:14:38;;;;;;;17.73;15.67;;;14.10;59.40;;;;;;5025727;28;20456;-46
2022/03/18 02:17:05;;;;;;;19.50;16.50;;;13.90;59.80;;;;;;5021559;28;20202;-45
2022/03/18 02:19:31;;;;;;;24.73;17.50;;;13.90;59.90;;;;;;5021691;28;20440;-46
2022/03/18 02:21:57;;;;;;;20.13;16.50;;;14.00;60.00;;;;;;5025116;28;21007;-44
2022/03/18 02:24:24;;;;;;;20.10;16.77;;;14.00;59.90;;;;;;5023321;28;20455;-43
2022/03/18 02:26:52;;;;;;;20.17;16.67;;;14.10;59.90;;;;;;5023146;28;20579;-43
2022/03/18 02:29:19;;;;;;;20.70;16.87;;;14.10;60.40;;;;;;5032188;28;20446;-44
2022/03/18 02:31:45;;;;;;;18.67;16.70;;;14.10;59.70;;;;;;5023053;28;20440;-45
2022/03/18 02:34:11;;;;;;;20.57;17.07;;;14.10;59.70;;;;;;5022403;28;20443;-43
2022/03/18 02:36:37;;;;;;;18.63;16.20;;;14.10;59.70;;;;;;5028742;28;20450;-47
2022/03/18 02:39:04;;;;;;;20.80;17.57;;;14.20;59.80;;;;;;5023364;28;20212;-44
2022/03/18 02:41:30;;;;;;;21.23;16.93;;;14.20;59.70;;;;;;5023705;28;20197;-43
2022/03/18 02:43:55;;;;;;;19.50;15.87;;;14.20;59.60;;;;;;5023623;28;20436;-46
2022/03/18 02:46:21;;;;;;;22.27;18.87;;;14.20;59.80;;;;;;5027147;28;20558;-43
2022/03/18 02:48:48;;;;;;;19.47;16.90;;;14.10;59.50;;;;;;5025601;28;20229;-45
2022/03/18 02:51:13;;;;;;;22.17;17.67;;;14.00;59.70;;;;;;5021315;28;20934;-43
2022/03/18 02:53:39;;;;;;;18.90;16.03;;;14.00;59.70;;;;;;5023817;28;20450;-44
2022/03/18 02:56:07;;;;;;;21.33;17.60;;;14.00;59.50;;;;;;5027713;28;20664;-45
2022/03/18 02:58:35;;;;;;;19.67;16.90;;;13.80;59.80;;;;;;5033514;28;20436;-43
2022/03/18 03:01:01;;;;;;;19.40;16.80;;;13.90;60.00;;;;;;5028226;28;20471;-43
2022/03/18 03:03:27;;;;;;;20.80;17.57;;;14.00;60.00;;;;;;5029947;28;20889;-44
2022/03/18 03:08:37;;;;;;;20.77;16.90;;;14.00;59.50;;;;;;5023410;28;21020;-45
2022/03/18 03:11:02;;;;;;;20.47;17.30;;;14.10;59.60;;;;;;5026847;28;20448;-45
2022/03/18 03:13:28;;;;;;;20.63;17.20;;;14.00;59.50;;;;;;5027634;28;21065;-46
2022/03/18 03:15:53;;;;;;;23.27;17.20;;;14.00;59.60;;;;;;5024027;28;20206;-44
2022/03/18 03:18:19;;;;;;;21.97;17.17;;;14.00;59.60;;;;;;5035596;28;20315;-44
2022/03/18 03:20:45;;;;;;;21.47;16.60;;;13.90;59.80;;;;;;5032558;28;20189;-43
2022/03/18 03:23:10;;;;;;;21.30;17.33;;;13.90;59.40;;;;;;5032528;28;20771;-43
2022/03/18 03:25:36;;;;;;;20.47;16.87;;;13.90;59.40;;;;;;5022904;28;20208;-43
2022/03/18 03:28:02;;;;;;;19.70;16.43;;;13.90;59.50;;;;;;5025674;28;20743;-45
2022/03/18 03:30:27;;;;;;;19.70;16.73;;;13.90;59.50;;;;;;5026211;28;20242;-44
2022/03/18 03:32:53;;;;;;;17.90;15.50;;;13.90;59.40;;;;;;5026728;28;20201;-44
2022/03/18 03:35:19;;;;;;;21.03;15.93;;;13.80;59.50;;;;;;5023873;28;20284;-45
2022/03/18 03:37:45;;;;;;;21.40;16.53;;;13.70;59.70;;;;;;5009625;28;20551;-44
2022/03/18 03:40:13;;;;;;;19.50;16.57;;;13.70;59.60;;;;;;5024324;28;20780;-43
2022/03/18 03:42:43;;;;;;;23.43;18.00;;;13.80;59.60;;;;;;5026564;28;20528;-44
2022/03/18 03:45:10;;;;;;;21.20;16.43;;;13.80;59.60;;;;;;5024977;28;20436;-45
2022/03/18 03:47:37;;;;;;;21.37;16.80;;;13.80;59.60;;;;;;5035275;28;20544;-43
2022/03/18 03:50:04;;;;;;;21.23;17.37;;;13.80;59.70;;;;;;5023803;28;20452;-43
2022/03/18 03:52:29;;;;;;;31.30;16.20;;;13.80;59.60;;;;;;5028600;28;20452;-43
2022/03/18 03:54:55;;;;;;;17.87;15.17;;;13.80;59.30;;;;;;5026174;28;20534;-49
2022/03/18 03:57:21;;;;;;;18.13;14.47;;;13.80;59.30;;;;;;5035515;28;20228;-43
2022/03/18 03:59:46;;;;;;;20.93;16.90;;;13.80;59.50;;;;;;5040745;28;20233;-46
2022/03/18 04:02:12;;;;;;;20.37;15.97;;;13.80;59.40;;;;;;5033542;28;20201;-43
2022/03/18 04:04:37;;;;;;;19.00;16.27;;;13.70;59.10;;;;;;5030534;28;20190;-43
2022/03/18 04:07:03;;;;;;;20.37;15.80;;;13.70;59.50;;;;;;5027160;28;20748;-44
2022/03/18 04:09:29;;;;;;;19.77;16.80;;;13.80;59.50;;;;;;5024114;28;20189;-43
2022/03/18 04:11:55;;;;;;;16.93;14.70;;;13.70;59.10;;;;;;5027947;28;21917;-43
2022/03/18 04:14:21;;;;;;;18.90;14.57;;;13.80;59.30;;;;;;5023966;28;20986;-45
2022/03/18 04:16:46;;;;;;;21.93;15.60;;;13.70;59.00;;;;;;5029135;28;20201;-46
2022/03/18 04:19:12;;;;;;;17.87;15.97;;;13.70;59.30;;;;;;5031768;28;20217;-47
2022/03/18 04:21:38;;;;;;;20.50;15.80;;;13.50;59.20;;;;;;5024369;28;20197;-44
2022/03/18 04:24:03;;;;;;;22.40;18.03;;;13.50;59.30;;;;;;5026273;28;20236;-44
2022/03/18 04:26:30;;;;;;;20.30;17.10;;;13.50;59.20;;;;;;5024003;28;20708;-45
2022/03/18 04:28:55;;;;;;;22.80;17.70;;;13.50;59.10;;;;;;5026701;28;20209;-48
2022/03/18 04:31:21;;;;;;;21.10;17.67;;;13.60;59.30;;;;;;5024620;28;20443;-44
2022/03/18 04:33:46;;;;;;;19.20;15.70;;;13.60;59.00;;;;;;5027677;28;20192;-43
2022/03/18 04:36:12;;;;;;;21.30;16.77;;;13.70;59.10;;;;;;5021839;28;20198;-45
2022/03/18 04:38:38;;;;;;;25.27;18.80;;;13.70;58.70;;;;;;5036237;28;20192;-46
2022/03/18 04:41:03;;;;;;;24.13;17.87;;;13.60;58.60;;;;;;5026262;28;20205;-48
2022/03/18 04:43:29;;;;;;;22.67;18.07;;;13.60;58.90;;;;;;5022298;28;20204;-48
2022/03/18 04:45:55;;;;;;;21.63;18.47;;;13.60;58.90;;;;;;5025321;28;20190;-44
2022/03/18 04:48:20;;;;;;;26.63;19.00;;;13.60;58.50;;;;;;5024365;28;21038;-43
2022/03/18 04:50:46;;;;;;;22.83;17.93;;;13.50;58.70;;;;;;5033669;28;20200;-46
2022/03/18 04:53:12;;;;;;;21.53;17.77;;;13.60;58.60;;;;;;5012479;28;20292;-44
2022/03/18 04:55:37;;;;;;;25.33;18.40;;;13.60;58.40;;;;;;5021242;28;20205;-45
2022/03/18 04:58:03;;;;;;;22.57;18.00;;;13.50;58.60;;;;;;5036141;28;20455;-43
2022/03/18 05:00:29;;;;;;;21.47;17.50;;;13.30;58.40;;;;;;5029207;28;20240;-43
2022/03/18 05:02:55;;;;;;;21.70;17.73;;;13.40;58.80;;;;;;5035273;28;20196;-45
2022/03/18 05:05:21;;;;;;;28.17;18.00;;;13.30;58.70;;;;;;5029217;28;20619;-45
2022/03/18 05:07:51;;;;;;;23.17;18.67;;;13.30;58.60;;;;;;5025408;28;20579;-47
2022/03/18 05:10:17;;;;;;;21.80;18.40;;;13.40;58.70;;;;;;5025129;28;20201;-44
2022/03/18 05:12:42;;;;;;;22.87;18.00;;;13.20;58.70;;;;;;5024847;28;20971;-44
2022/03/18 05:15:09;;;;;;;21.40;17.10;;;13.30;59.20;;;;;;5024633;28;20555;-43
2022/03/18 05:17:35;;;;;;;27.37;18.63;;;13.30;59.00;;;;;;5023059;28;20202;-46
2022/03/18 05:20:02;;;;;;;26.10;17.67;;;13.40;59.00;;;;;;5023013;28;20450;-46
2022/03/18 05:22:28;;;;;;;23.00;17.63;;;13.40;58.60;;;;;;5024480;28;20801;-46
2022/03/18 05:24:54;;;;;;;26.67;17.70;;;13.50;58.50;;;;;;5024550;28;20440;-45
2022/03/18 05:27:19;;;;;;;25.33;17.80;;;13.50;58.50;;;;;;5023853;28;20225;-47
2022/03/18 05:29:45;;;;;;;22.17;18.10;;;13.50;58.20;;;;;;5022771;28;20445;-45
2022/03/18 05:32:11;;;;;;;22.60;17.90;;;13.30;58.20;;;;;;5037766;28;20262;-45
2022/03/18 05:34:37;;;;;;;20.10;16.33;;;13.40;58.50;;;;;;5028583;28;20200;-46
2022/03/18 05:37:05;;;;;;;22.30;17.00;;;13.50;58.50;;;;;;5023372;28;20615;-46
2022/03/18 05:39:32;;;;;;;22.10;17.53;;;13.60;58.50;;;;;;5020786;28;20448;-44
2022/03/18 05:41:58;;;;;;;23.10;16.50;;;13.60;58.30;;;;;;5025159;28;20823;-46
2022/03/18 05:44:24;;;;;;;25.20;18.90;;;13.50;58.40;;;;;;5021733;28;20450;-48
2022/03/18 05:46:51;;;;;;;24.07;18.00;;;13.50;58.30;;;;;;5023966;28;20224;-46
2022/03/18 05:49:18;;;;;;;22.87;17.20;;;13.60;58.20;;;;;;5030817;28;20439;-43
2022/03/18 05:51:47;;;;;;;22.87;18.23;;;13.60;58.00;;;;;;5039565;28;20471;-47
2022/03/18 05:54:13;;;;;;;24.27;18.80;;;13.70;58.20;;;;;;5033721;28;20431;-48
2022/03/18 05:56:54;;;;;;;22.90;17.10;;;13.70;58.20;;;;;;5035474;28;20787;-44
2022/03/18 05:59:27;;;;;;;25.30;18.07;;;13.70;58.20;;;;;;5029972;28;20225;-43
2022/03/18 06:01:55;;;;;;;22.23;16.40;;;13.50;58.10;;;;;;5030211;28;20458;-44
2022/03/18 06:04:22;;;;;;;24.80;18.37;;;13.60;58.00;;;;;;5025083;28;20451;-45
2022/03/18 06:06:48;;;;;;;23.57;18.20;;;13.60;57.90;;;;;;5034875;28;20528;-45
2022/03/18 06:12:00;;;;;;;24.90;18.80;;;13.40;58.20;;;;;;5027220;28;20481;-43
2022/03/18 06:14:28;;;;;;;22.97;18.30;;;13.30;58.40;;;;;;5023822;28;20443;-44
2022/03/18 06:16:56;;;;;;;23.73;18.67;;;13.30;58.50;;;;;;5032182;28;20195;-43
2022/03/18 06:19:23;;;;;;;23.23;17.90;;;13.30;58.50;;;;;;5020116;28;20462;-45
2022/03/18 06:21:49;;;;;;;24.37;20.27;;;13.50;58.50;;;;;;5019806;28;20439;-45
2022/03/18 06:24:16;;;;;;;21.90;17.53;;;13.50;58.20;;;;;;5025451;28;20497;-45
2022/03/18 06:26:42;;;;;;;26.07;20.13;;;13.60;58.00;;;;;;5022396;28;20439;-46
2022/03/18 06:29:08;;;;;;;20.57;15.70;;;13.70;58.10;;;;;;5022131;28;20436;-45
2022/03/18 06:31:35;;;;;;;23.83;18.20;;;13.80;58.10;;;;;;5021947;28;20271;-48
2022/03/18 06:34:01;;;;;;;24.70;18.80;;;13.90;57.90;;;;;;5028044;28;20439;-44
2022/03/18 06:36:28;;;;;;;27.37;19.20;;;14.10;57.60;;;;;;5022964;28;20447;-48
2022/03/18 06:38:54;;;;;;;27.63;19.00;;;14.20;57.50;;;;;;5019580;28;20192;-45
2022/03/18 06:41:19;;;;;;;23.60;17.80;;;14.40;57.20;;;;;;5040835;28;20585;-44
2022/03/18 06:43:49;;;;;;;26.43;19.70;;;14.50;56.80;;;;;;5028634;28;21289;-46
2022/03/18 06:46:15;;;;;;;21.43;18.00;;;14.60;56.40;;;;;;5020094;28;20600;-44
2022/03/18 06:48:42;;;;;;;25.07;20.07;;;14.70;56.20;;;;;;5020536;28;20566;-45
2022/03/18 06:51:08;;;;;;;24.70;19.10;;;14.80;56.10;;;;;;5022911;28;20444;-46
2022/03/18 06:53:34;;;;;;;27.73;20.30;;;14.80;55.70;;;;;;5023620;28;20506;-44
2022/03/18 06:56:00;;;;;;;27.20;20.63;;;14.90;55.50;;;;;;5020972;28;20538;-45
2022/03/18 06:58:27;;;;;;;24.93;17.77;;;15.00;55.30;;;;;;5028340;28;20239;-46
2022/03/18 07:00:54;;;;;;;25.40;19.77;;;15.00;54.90;;;;;;5026435;28;20981;-46
2022/03/18 07:03:19;;;;;;;24.93;19.30;;;15.00;54.90;;;;;;5018129;28;20440;-45
2022/03/18 07:05:45;;;;;;;25.40;18.73;;;15.10;54.50;;;;;;5020262;28;20448;-44
2022/03/18 07:08:10;;;;;;;28.73;22.47;;;15.10;54.30;;;;;;5024606;28;20743;-45
2022/03/18 07:10:36;;;;;;;18.90;14.30;;;15.10;53.80;;;;;;5020779;28;20676;-44
2022/03/18 07:13:02;;;;;;;27.13;21.90;;;15.20;55.10;;;;;;4999709;28;20243;-44
2022/03/18 07:15:27;;;;;;;30.60;21.70;;;15.10;55.40;;;;;;5023275;28;20692;-44
2022/03/18 07:17:58;;;;;;;27.17;18.47;;;15.20;54.10;;;;;;5021074;28;20268;-45
2022/03/18 07:20:32;;;;;;;29.50;20.53;;;15.30;53.80;;;;;;5026382;28;20299;-44
2022/03/18 07:23:12;;;;;;;19.00;14.73;;;15.20;53.20;;;;;;5027890;28;20519;-45
2022/03/18 07:25:40;;;;;;;30.93;23.60;;;15.20;54.10;;;;;;5035877;28;20449;-44
2022/03/18 07:28:08;;;;;;;31.03;21.50;;;15.30;54.20;;;;;;5037676;28;20502;-44
2022/03/18 07:30:35;;;;;;;25.33;20.47;;;15.40;54.30;;;;;;5026929;28;20923;-50
2022/03/18 07:33:00;;;;;;;29.57;23.63;;;15.50;54.60;;;;;;5032721;28;20439;-46
2022/03/18 07:35:27;;;;;;;22.73;18.00;;;15.50;53.80;;;;;;5026649;28;20519;-47
2022/03/18 07:37:53;;;;;;;25.20;19.30;;;15.60;53.30;;;;;;5034258;28;20704;-45
2022/03/18 07:40:19;;;;;;;31.30;22.57;;;15.70;54.10;;;;;;5028029;28;20603;-47
2022/03/18 07:42:52;;;;;;;32.03;24.97;;;15.90;52.60;;;;;;5029824;28;20249;-46
2022/03/18 07:45:26;;;;;;;32.73;24.67;;;15.80;52.10;;;;;;5026233;28;20450;-46
2022/03/18 07:47:51;;;;;;;28.43;21.80;;;15.70;51.90;;;;;;5032046;28;20495;-45
2022/03/18 07:50:21;;;;;;;19.77;15.97;;;15.60;52.30;;;;;;5031579;28;20770;-46
2022/03/18 07:52:56;;;;;;;31.90;24.47;;;15.50;54.80;;;;;;5032484;28;20686;-44
2022/03/18 07:55:24;;;;;;;21.43;17.37;;;15.80;52.80;;;;;;5032409;28;21301;-47
2022/03/18 07:57:50;;;;;;;31.03;23.70;;;16.00;54.30;;;;;;5033293;28;20439;-44
2022/03/18 08:00:16;;;;;;;27.80;22.70;;;16.10;52.40;;;;;;5029534;28;20477;-48
2022/03/18 08:02:44;;;;;;;31.90;25.30;;;16.30;51.40;;;;;;5040413;28;20786;-46
2022/03/18 08:05:10;;;;;;;30.33;23.43;;;16.40;51.00;;;;;;5039464;28;20922;-44
2022/03/18 08:07:36;;;;;;;30.60;23.37;;;16.40;52.10;;;;;;5032998;28;20537;-43
2022/03/18 08:10:04;;;;;;;30.67;23.60;;;16.40;52.40;;;;;;5032351;28;21183;-45
2022/03/18 08:12:31;;;;;;;23.43;18.20;;;16.70;51.30;;;;;;5040969;28;20515;-46
2022/03/18 08:15:02;;;;;;;29.43;24.10;;;16.70;51.30;;;;;;5044867;28;20439;-46
2022/03/18 08:17:28;;;;;;;20.80;15.77;;;16.80;50.50;;;;;;5031701;28;20444;-44
2022/03/18 08:19:54;;;;;;;32.93;24.80;;;16.90;51.50;;;;;;5031193;28;20492;-45
2022/03/18 08:22:21;;;;;;;25.53;18.17;;;16.90;49.60;;;;;;5031818;28;20432;-48
2022/03/18 08:24:49;;;;;;;25.27;21.07;;;16.90;51.00;;;;;;5031287;28;20205;-45
2022/03/18 08:27:16;;;;;;;22.33;17.93;;;16.80;50.40;;;;;;5030897;28;20508;-44
2022/03/18 08:29:42;;;;;;;28.37;24.63;;;16.70;51.20;;;;;;5031759;28;20440;-45
2022/03/18 08:32:11;;;;;;;30.87;23.53;;;16.20;50.50;;;;;;5032552;28;20493;-47
2022/03/18 08:34:37;;;;;;;21.63;17.10;;;15.90;52.10;;;;;;5040361;28;20432;-44
2022/03/18 08:37:05;;;;;;;27.17;20.57;;;15.90;53.20;;;;;;5031823;28;20448;-45
2022/03/18 08:39:32;;;;;;;18.37;16.37;;;15.90;51.50;;;;;;5031815;28;20497;-46
2022/03/18 08:41:58;;;;;;;27.57;22.83;;;15.90;52.90;;;;;;5031951;28;20935;-44
2022/03/18 08:44:23;;;;;;;25.43;22.03;;;16.00;51.10;;;;;;5030534;28;20431;-49
2022/03/18 08:46:49;;;;;;;26.30;20.33;;;16.20;51.20;;;;;;5031706;28;20224;-45
2022/03/18 08:49:15;;;;;;;29.97;23.20;;;16.20;51.10;;;;;;5031678;28;20197;-45
2022/03/18 08:51:41;;;;;;;26.00;22.40;;;16.00;51.10;;;;;;5031814;28;20570;-48
2022/03/18 08:54:07;;;;;;;28.17;21.40;;;16.10;51.60;;;;;;5028006;28;20280;-44
2022/03/18 08:56:33;;;;;;;25.43;21.70;;;16.20;51.60;;;;;;5031912;28;20566;-45
2022/03/18 08:58:59;;;;;;;28.37;20.27;;;16.30;51.90;;;;;;5031472;28;20717;-46
2022/03/18 09:01:25;;;;;;;24.70;19.93;;;16.40;51.50;;;;;;5030682;28;20475;-45
2022/03/18 09:03:51;;;;;;;23.10;17.47;;;16.50;51.10;;;;;;5028917;28;20466;-45
2022/03/18 09:06:17;;;;;;;23.70;17.90;;;16.60;51.90;;;;;;5031631;28;20424;-45
2022/03/18 09:08:43;;;;;;;23.20;17.60;;;16.60;51.20;;;;;;5030179;28;20490;-48
2022/03/18 09:11:09;;;;;;;22.43;17.30;;;16.70;50.60;;;;;;5034948;28;20594;-44
2022/03/18 09:13:35;;;;;;;16.77;14.47;;;16.80;50.90;;;;;;5030808;28;20440;-45
2022/03/18 09:16:02;;;;;;;19.83;15.80;;;16.90;50.60;;;;;;5035103;28;20197;-46
2022/03/18 09:18:28;;;;;;;21.47;17.80;;;16.80;49.70;;;;;;5030887;28;20966;-46
2022/03/18 09:20:53;;;;;;;21.23;16.07;;;16.70;50.20;;;;;;5031751;28;20428;-46
2022/03/18 09:23:19;;;;;;;22.70;17.37;;;16.80;49.90;;;;;;5029927;28;20804;-45
2022/03/18 09:25:45;;;;;;;24.63;20.00;;;16.60;50.00;;;;;;5029808;28;20221;-45
2022/03/18 09:28:10;;;;;;;20.10;15.60;;;16.60;50.30;;;;;;5031402;28;20244;-45
2022/03/18 09:30:36;;;;;;;25.27;18.93;;;16.60;50.30;;;;;;5030563;28;20197;-45
2022/03/18 09:33:02;;;;;;;24.10;17.80;;;16.50;50.40;;;;;;5031639;28;20196;-46
2022/03/18 09:35:28;;;;;;;20.53;13.87;;;16.60;49.80;;;;;;5029772;28;20189;-46
2022/03/18 09:37:53;;;;;;;24.50;16.20;;;16.60;50.60;;;;;;5028777;28;20205;-45
2022/03/18 09:40:19;;;;;;;23.93;17.83;;;16.60;50.10;;;;;;5030497;28;20436;-44
2022/03/18 09:43:00;;;;;;;25.60;19.57;;;16.70;50.00;;;;;;5030633;28;20817;-46
2022/03/18 09:45:31;;;;;;;24.23;19.27;;;16.90;50.00;;;;;;5024651;28;20197;-47
2022/03/18 09:48:02;;;;;;;22.23;16.97;;;17.00;50.10;;;;;;5030883;28;20577;-46
2022/03/18 09:50:29;;;;;;;23.77;19.17;;;17.10;49.70;;;;;;5028022;28;20440;-46
2022/03/18 09:52:54;;;;;;;19.97;15.60;;;17.10;49.70;;;;;;5027361;28;20558;-46
2022/03/18 09:55:20;;;;;;;27.57;19.43;;;17.00;49.90;;;;;;5029368;28;20940;-46
2022/03/18 09:57:46;;;;;;;19.90;17.20;;;17.10;49.50;;;;;;5031168;28;20189;-45
2022/03/18 10:00:12;;;;;;;21.27;17.87;;;17.30;49.20;;;;;;5028683;28;20290;-47
2022/03/18 10:02:38;;;;;;;24.20;19.83;;;17.40;48.80;;;;;;5023475;28;20237;-44
2022/03/18 10:05:14;;;;;;;16.63;13.70;;;17.50;48.40;;;;;;5026862;28;20459;-47
2022/03/18 10:07:52;;;;;;;22.40;18.17;;;17.50;48.40;;;;;;5029864;28;20232;-49
2022/03/18 10:10:17;;;;;;;25.97;19.40;;;17.30;47.40;;;;;;5029296;28;20444;-46
2022/03/18 10:12:45;;;;;;;23.63;19.13;;;17.30;48.70;;;;;;5029236;28;20450;-49
2022/03/18 10:15:19;;;;;;;25.20;19.70;;;17.50;48.50;;;;;;5022978;28;21624;-48
2022/03/18 10:17:48;;;;;;;25.73;20.10;;;17.60;48.70;;;;;;5022473;28;20448;-51
2022/03/18 10:20:33;;;;;;;24.37;19.27;;;17.60;47.20;;;;;;5028018;28;20816;-48
2022/03/18 10:23:20;;;;;;;26.67;20.40;;;17.50;47.60;;;;;;5023996;28;20818;-48
2022/03/18 10:25:50;;;;;;;21.43;17.87;;;17.70;47.70;;;;;;5028340;28;20519;-46
2022/03/18 10:28:37;;;;;;;27.17;21.63;;;17.80;47.30;;;;;;5027706;28;20483;-48
2022/03/18 10:31:16;;;;;;;28.17;20.33;;;17.30;45.80;;;;;;5032502;28;20436;-46
2022/03/18 10:39:51;;;;;;;24.60;20.10;;;17.40;48.40;;;;;;5028097;28;20501;-45
2022/03/18 10:42:20;;;;;;;16.40;13.20;;;17.90;49.40;;;;;;5030226;28;20432;-45
2022/03/18 10:44:59;;;;;;;20.10;15.80;;;18.30;47.40;;;;;;5026934;28;20440;-48
2022/03/18 10:47:32;;;;;;;24.07;18.70;;;18.70;46.60;;;;;;5024627;28;20471;-48
2022/03/18 10:50:10;;;;;;;26.57;21.80;;;18.90;45.80;;;;;;5028484;28;20436;-47
2022/03/18 10:52:48;;;;;;;22.80;20.30;;;18.80;43.90;;;;;;5028027;28;20435;-46
2022/03/18 10:55:19;;;;;;;23.27;20.70;;;18.40;44.30;;;;;;5025422;28;20447;-46
2022/03/18 10:58:15;;;;;;;24.07;19.13;;;18.50;45.60;;;;;;5029438;28;20443;-45
2022/03/18 11:00:50;;;;;;;25.57;21.90;;;18.40;45.60;;;;;;5016617;28;20491;-48
2022/03/18 11:03:16;;;;;;;24.67;21.43;;;18.20;45.80;;;;;;5036388;28;20439;-51
2022/03/18 11:05:42;;;;;;;25.67;21.57;;;18.10;46.80;;;;;;5027182;28;20454;-49
2022/03/18 11:08:13;;;;;;;20.80;17.83;;;18.10;45.10;;;;;;5034094;28;20507;-50
2022/03/18 11:13:28;;;;;;;24.10;20.57;;;18.40;46.50;;;;;;5028692;28;22082;-51
2022/03/18 11:15:55;;;;;;;21.47;17.33;;;18.40;45.10;;;;;;5027475;28;20486;-49
2022/03/18 11:18:21;;;;;;;19.63;17.53;;;18.60;46.30;;;;;;5034028;28;20442;-50
2022/03/18 11:20:50;;;;;;;28.47;20.50;;;18.70;46.30;;;;;;5046256;28;20529;-50
2022/03/18 11:23:16;;;;;;;22.83;20.13;;;18.90;45.50;;;;;;5031916;28;20478;-49
2022/03/18 11:25:44;;;;;;;16.27;13.27;;;19.00;45.30;;;;;;5032314;28;20471;-45
2022/03/18 11:28:15;;;;;;;20.63;15.00;;;19.20;47.20;;;;;;5032138;28;20228;-50
2022/03/18 11:30:41;;;;;;;26.27;22.53;;;19.50;46.80;;;;;;5038741;28;20450;-48
2022/03/18 11:33:10;;;;;;;19.37;17.20;;;19.30;43.50;;;;;;5037201;28;20526;-47
2022/03/18 11:35:47;;;;;;;23.93;21.03;;;19.00;44.70;;;;;;5030939;28;21004;-49
2022/03/18 11:38:40;;;;;;;24.80;22.10;;;19.00;44.60;;;;;;5024905;28;20451;-50
2022/03/18 11:41:05;;;;;;;27.43;20.40;;;19.00;44.90;;;;;;5025373;28;20442;-46
2022/03/18 11:43:35;;;;;;;20.63;18.43;;;19.10;44.50;;;;;;5030530;28;20517;-50
2022/03/18 11:46:23;;;;;;;24.20;21.13;;;19.20;45.20;;;;;;5031892;28;20672;-51
2022/03/18 11:49:08;;;;;;;22.57;18.70;;;19.20;44.40;;;;;;5032174;28;20479;-47
2022/03/18 11:51:43;;;;;;;23.00;20.57;;;19.40;44.80;;;;;;5031983;28;20439;-47
2022/03/18 11:54:12;;;;;;;24.40;21.07;;;19.60;44.10;;;;;;5030884;28;20435;-50
2022/03/18 11:56:50;;;;;;;23.63;20.03;;;19.60;43.80;;;;;;5031270;28;20436;-50
2022/03/18 11:59:24;;;;;;;24.10;18.83;;;19.50;44.30;;;;;;5031772;28;20444;-48
2022/03/18 12:02:07;;;;;;;25.63;22.90;;;19.50;44.60;;;;;;5032467;28;20457;-52
2022/03/18 12:04:46;;;;;;;21.13;18.00;;;19.30;44.10;;;;;;5032201;28;20527;-50
2022/03/18 12:07:24;;;;;;;22.83;17.87;;;19.20;44.30;;;;;;5031288;28;20475;-52
2022/03/18 12:10:09;;;;;;;20.47;18.37;;;19.50;45.10;;;;;;5037537;28;20450;-50
2022/03/18 12:12:43;;;;;;;22.17;19.00;;;19.70;44.00;;;;;;5030596;28;20444;-47
2022/03/18 12:15:20;;;;;;;25.33;22.60;;;19.80;43.50;;;;;;5034774;28;20957;-50
2022/03/18 12:17:56;;;;;;;31.97;24.90;;;19.50;42.60;;;;;;5030591;28;20443;-46
2022/03/18 12:20:21;;;;;;;26.83;23.60;;;19.20;42.10;;;;;;5031936;28;20451;-49
2022/03/18 12:22:50;;;;;;;26.30;23.03;;;19.40;43.20;;;;;;5029977;28;20435;-49
2022/03/18 12:25:16;;;;;;;26.60;21.60;;;19.50;42.70;;;;;;5030825;28;20221;-49
2022/03/18 12:27:44;;;;;;;17.13;15.30;;;19.60;41.90;;;;;;5013742;28;20840;-47
2022/03/18 12:30:23;;;;;;;28.17;22.93;;;19.90;42.60;;;;;;5030140;28;20442;-52
2022/03/18 12:33:00;;;;;;;25.60;22.90;;;19.90;41.80;;;;;;5029412;28;20493;-50
2022/03/18 12:35:28;;;;;;;24.33;21.13;;;19.60;41.70;;;;;;5030286;28;20443;-49
2022/03/18 12:38:17;;;;;;;22.73;20.20;;;19.30;43.10;;;;;;5029826;28;20551;-51
2022/03/18 12:41:01;;;;;;;26.63;23.43;;;19.20;42.80;;;;;;5024594;28;20525;-47
2022/03/18 12:43:31;;;;;;;25.33;22.63;;;19.30;42.20;;;;;;5029600;28;20444;-46
2022/03/18 12:45:57;;;;;;;25.40;22.20;;;19.20;42.80;;;;;;5028829;28;20464;-50
2022/03/18 12:48:23;;;;;;;26.00;23.30;;;19.10;42.50;;;;;;5024662;28;20531;-46
2022/03/18 12:50:52;;;;;;;26.93;22.10;;;19.10;42.40;;;;;;5029791;28;20436;-46
2022/03/18 12:53:18;;;;;;;25.63;21.33;;;19.20;42.70;;;;;;5027228;28;20452;-48